sensor_id;sensor_type;location;lat;lon;timestamp;pressure;altitude;pressure_sealevel;temperature;humidity
60974;BME280;46846;51.528;5.076;2022-12-18T00:00:05;102289.97;;;-2.73;74.27
60974;BME280;46846;51.528;5.076;2022-12-18T00:02:30;102282.03;;;-2.76;73.99
60974;BME280;46846;51.528;5.076;2022-12-18T00:04:56;102275.84;;;-2.78;73.78
60974;BME280;46846;51.528;5.076;2022-12-18T00:07:21;102281.00;;;-2.80;74.25
60974;BME280;46846;51.528;5.076;2022-12-18T00:09:47;102281.81;;;-2.81;74.56
60974;BME280;46846;51.528;5.076;2022-12-18T00:12:12;102271.47;;;-2.79;73.96
60974;BME280;46846;51.528;5.076;2022-12-18T00:14:37;102280.31;;;-2.76;74.03
60974;BME280;46846;51.528;5.076;2022-12-18T00:17:03;102273.59;;;-2.70;73.29
60974;BME280;46846;51.528;5.076;2022-12-18T00:19:28;102277.78;;;-2.74;73.48
60974;BME280;46846;51.528;5.076;2022-12-18T00:21:53;102265.38;;;-2.80;73.78
60974;BME280;46846;51.528;5.076;2022-12-18T00:24:19;102266.13;;;-2.82;73.56
60974;BME280;46846;51.528;5.076;2022-12-18T00:26:44;102258.31;;;-2.82;73.85
60974;BME280;46846;51.528;5.076;2022-12-18T00:29:11;102254.69;;;-2.86;73.85
60974;BME280;46846;51.528;5.076;2022-12-18T00:31:39;102255.44;;;-2.89;73.71
60974;BME280;46846;51.528;5.076;2022-12-18T00:34:05;102249.41;;;-2.88;73.61
60974;BME280;46846;51.528;5.076;2022-12-18T00:36:32;102251.06;;;-2.90;74.01
60974;BME280;46846;51.528;5.076;2022-12-18T00:38:59;102243.91;;;-2.94;74.09
60974;BME280;46846;51.528;5.076;2022-12-18T00:41:25;102244.75;;;-2.95;73.88
60974;BME280;46846;51.528;5.076;2022-12-18T00:44:11;102246.31;;;-2.98;74.27
60974;BME280;46846;51.528;5.076;2022-12-18T00:46:37;102243.91;;;-2.94;74.07
60974;BME280;46846;51.528;5.076;2022-12-18T00:49:03;102239.59;;;-2.93;74.25
60974;BME280;46846;51.528;5.076;2022-12-18T00:51:29;102242.22;;;-2.93;73.96
60974;BME280;46846;51.528;5.076;2022-12-18T00:53:55;102239.59;;;-2.93;73.48
60974;BME280;46846;51.528;5.076;2022-12-18T00:56:20;102247.34;;;-2.95;73.46
60974;BME280;46846;51.528;5.076;2022-12-18T00:58:45;102243.03;;;-2.94;73.73
60974;BME280;46846;51.528;5.076;2022-12-18T01:01:11;102237.56;;;-3.00;73.53
60974;BME280;46846;51.528;5.076;2022-12-18T01:03:36;102246.25;;;-3.00;73.92
60974;BME280;46846;51.528;5.076;2022-12-18T01:06:10;102248.72;;;-3.03;73.69
60974;BME280;46846;51.528;5.076;2022-12-18T01:08:36;102255.59;;;-3.05;73.96
60974;BME280;46846;51.528;5.076;2022-12-18T01:11:10;102263.31;;;-3.07;74.03
60974;BME280;46846;51.528;5.076;2022-12-18T01:13:35;102262.41;;;-3.07;73.98
60974;BME280;46846;51.528;5.076;2022-12-18T01:16:01;102263.25;;;-3.08;73.91
60974;BME280;46846;51.528;5.076;2022-12-18T01:18:26;102258.03;;;-3.08;73.53
60974;BME280;46846;51.528;5.076;2022-12-18T01:20:52;102264.16;;;-3.08;73.48
60974;BME280;46846;51.528;5.076;2022-12-18T01:23:17;102266.75;;;-3.08;73.42
60974;BME280;46846;51.528;5.076;2022-12-18T01:25:42;102264.00;;;-3.11;73.64
60974;BME280;46846;51.528;5.076;2022-12-18T01:28:08;102250.00;;;-3.13;73.44
60974;BME280;46846;51.528;5.076;2022-12-18T01:30:33;102252.41;;;-3.18;74.00
60974;BME280;46846;51.528;5.076;2022-12-18T01:32:58;102261.06;;;-3.19;73.43
60974;BME280;46846;51.528;5.076;2022-12-18T01:35:24;102254.00;;;-3.21;73.88
60974;BME280;46846;51.528;5.076;2022-12-18T01:37:54;102260.09;;;-3.21;73.68
60974;BME280;46846;51.528;5.076;2022-12-18T01:40:20;102254.06;;;-3.20;73.78
60974;BME280;46846;51.528;5.076;2022-12-18T01:42:51;102253.25;;;-3.19;73.04
60974;BME280;46846;51.528;5.076;2022-12-18T01:47:50;102241.88;;;-3.21;73.48
60974;BME280;46846;51.528;5.076;2022-12-18T01:50:27;102245.44;;;-3.19;73.42
60974;BME280;46846;51.528;5.076;2022-12-18T01:52:56;102243.56;;;-3.21;73.35
60974;BME280;46846;51.528;5.076;2022-12-18T01:55:25;102241.81;;;-3.22;73.28
60974;BME280;46846;51.528;5.076;2022-12-18T01:57:54;102246.06;;;-3.24;73.10
60974;BME280;46846;51.528;5.076;2022-12-18T02:00:22;102239.13;;;-3.24;72.75
60974;BME280;46846;51.528;5.076;2022-12-18T02:02:48;102240.78;;;-3.26;72.99
60974;BME280;46846;51.528;5.076;2022-12-18T02:05:17;102249.53;;;-3.24;72.81
60974;BME280;46846;51.528;5.076;2022-12-18T02:10:26;102252.00;;;-3.27;72.76
60974;BME280;46846;51.528;5.076;2022-12-18T02:18:19;102253.50;;;-3.32;73.15
60974;BME280;46846;51.528;5.076;2022-12-18T02:21:04;102252.69;;;-3.31;72.70
60974;BME280;46846;51.528;5.076;2022-12-18T02:27:05;102240.19;;;-3.38;73.26
60974;BME280;46846;51.528;5.076;2022-12-18T02:29:37;102232.38;;;-3.38;72.69
60974;BME280;46846;51.528;5.076;2022-12-18T02:32:08;102230.69;;;-3.38;72.87
60974;BME280;46846;51.528;5.076;2022-12-18T02:34:38;102229.66;;;-3.41;72.48
60974;BME280;46846;51.528;5.076;2022-12-18T02:37:06;102233.13;;;-3.41;73.04
60974;BME280;46846;51.528;5.076;2022-12-18T02:39:34;102236.56;;;-3.42;72.83
60974;BME280;46846;51.528;5.076;2022-12-18T02:42:01;102223.44;;;-3.45;72.49
60974;BME280;46846;51.528;5.076;2022-12-18T02:44:43;102219.09;;;-3.45;72.61
60974;BME280;46846;51.528;5.076;2022-12-18T02:47:11;102216.50;;;-3.45;72.70
60974;BME280;46846;51.528;5.076;2022-12-18T02:57:58;102201.66;;;-3.47;72.54
60974;BME280;46846;51.528;5.076;2022-12-18T03:03:29;102205.88;;;-3.49;72.03
60974;BME280;46846;51.528;5.076;2022-12-18T03:06:13;102199.72;;;-3.51;72.28
60974;BME280;46846;51.528;5.076;2022-12-18T03:08:44;102191.78;;;-3.54;72.27
60974;BME280;46846;51.528;5.076;2022-12-18T03:11:14;102181.91;;;-3.62;72.51
60974;BME280;46846;51.528;5.076;2022-12-18T03:13:47;102188.97;;;-3.59;72.73
60974;BME280;46846;51.528;5.076;2022-12-18T03:16:22;102186.28;;;-3.61;72.48
60974;BME280;46846;51.528;5.076;2022-12-18T03:18:56;102189.72;;;-3.62;72.62
60974;BME280;46846;51.528;5.076;2022-12-18T03:21:27;102188.69;;;-3.65;72.61
60974;BME280;46846;51.528;5.076;2022-12-18T03:23:54;102197.44;;;-3.63;72.75
60974;BME280;46846;51.528;5.076;2022-12-18T03:26:22;102205.25;;;-3.63;72.24
60974;BME280;46846;51.528;5.076;2022-12-18T03:29:22;102206.06;;;-3.64;72.07
60974;BME280;46846;51.528;5.076;2022-12-18T03:31:54;102205.88;;;-3.69;72.54
60974;BME280;46846;51.528;5.076;2022-12-18T03:34:29;102207.66;;;-3.68;72.57
60974;BME280;46846;51.528;5.076;2022-12-18T03:36:56;102204.13;;;-3.68;71.99
60974;BME280;46846;51.528;5.076;2022-12-18T03:39:21;102200.78;;;-3.66;72.33
60974;BME280;46846;51.528;5.076;2022-12-18T03:41:51;102189.34;;;-3.69;72.07
60974;BME280;46846;51.528;5.076;2022-12-18T03:44:30;102180.69;;;-3.70;71.97
60974;BME280;46846;51.528;5.076;2022-12-18T03:47:04;102173.63;;;-3.73;72.05
60974;BME280;46846;51.528;5.076;2022-12-18T03:49:36;102165.66;;;-3.76;72.48
60974;BME280;46846;51.528;5.076;2022-12-18T03:52:16;102169.97;;;-3.76;72.26
60974;BME280;46846;51.528;5.076;2022-12-18T03:54:44;102170.72;;;-3.79;71.91
60974;BME280;46846;51.528;5.076;2022-12-18T03:57:14;102168.94;;;-3.80;72.09
60974;BME280;46846;51.528;5.076;2022-12-18T03:59:43;102161.97;;;-3.81;72.21
60974;BME280;46846;51.528;5.076;2022-12-18T04:02:09;102160.03;;;-3.85;72.07
60974;BME280;46846;51.528;5.076;2022-12-18T04:04:39;102152.97;;;-3.88;71.95
60974;BME280;46846;51.528;5.076;2022-12-18T04:07:06;102145.09;;;-3.89;72.32
60974;BME280;46846;51.528;5.076;2022-12-18T04:09:32;102141.69;;;-3.88;72.41
60974;BME280;46846;51.528;5.076;2022-12-18T04:11:59;102139.84;;;-3.91;72.18
60974;BME280;46846;51.528;5.076;2022-12-18T04:14:24;102146.00;;;-3.89;72.17
60974;BME280;46846;51.528;5.076;2022-12-18T04:16:50;102146.91;;;-3.88;71.99
60974;BME280;46846;51.528;5.076;2022-12-18T04:19:15;102150.28;;;-3.89;71.95
60974;BME280;46846;51.528;5.076;2022-12-18T04:21:40;102155.44;;;-3.91;71.88
60974;BME280;46846;51.528;5.076;2022-12-18T04:24:06;102159.63;;;-3.94;72.11
60974;BME280;46846;51.528;5.076;2022-12-18T04:26:31;102166.47;;;-3.96;72.37
60974;BME280;46846;51.528;5.076;2022-12-18T04:28:57;102169.06;;;-3.96;71.97
60974;BME280;46846;51.528;5.076;2022-12-18T04:31:22;102166.50;;;-3.95;72.33
60974;BME280;46846;51.528;5.076;2022-12-18T04:36:23;102172.44;;;-3.98;72.20
60974;BME280;46846;51.528;5.076;2022-12-18T04:38:51;102177.66;;;-3.98;71.72
60974;BME280;46846;51.528;5.076;2022-12-18T04:41:16;102172.41;;;-3.99;71.47
60974;BME280;46846;51.528;5.076;2022-12-18T04:43:42;102167.94;;;-4.02;71.74
60974;BME280;46846;51.528;5.076;2022-12-18T04:46:07;102171.50;;;-4.00;72.02
60974;BME280;46846;51.528;5.076;2022-12-18T04:48:34;102171.41;;;-4.01;71.62
60974;BME280;46846;51.528;5.076;2022-12-18T04:50:59;102171.28;;;-4.04;71.69
60974;BME280;46846;51.528;5.076;2022-12-18T04:53:25;102177.38;;;-4.04;71.71
60974;BME280;46846;51.528;5.076;2022-12-18T04:55:50;102176.41;;;-4.06;71.33
60974;BME280;46846;51.528;5.076;2022-12-18T04:58:18;102167.00;;;-4.04;71.66
60974;BME280;46846;51.528;5.076;2022-12-18T05:00:44;102163.56;;;-4.03;71.90
60974;BME280;46846;51.528;5.076;2022-12-18T05:03:09;102160.66;;;-4.09;71.75
60974;BME280;46846;51.528;5.076;2022-12-18T05:05:35;102161.50;;;-4.10;71.40
60974;BME280;46846;51.528;5.076;2022-12-18T05:08:00;102177.84;;;-4.13;71.72
60974;BME280;46846;51.528;5.076;2022-12-18T05:10:26;102179.47;;;-4.15;71.87
60974;BME280;46846;51.528;5.076;2022-12-18T05:12:51;102182.13;;;-4.13;71.75
60974;BME280;46846;51.528;5.076;2022-12-18T05:15:24;102177.63;;;-4.17;71.72
60974;BME280;46846;51.528;5.076;2022-12-18T05:17:49;102181.03;;;-4.18;71.56
60974;BME280;46846;51.528;5.076;2022-12-18T05:20:15;102177.41;;;-4.22;71.73
60974;BME280;46846;51.528;5.076;2022-12-18T05:22:40;102177.53;;;-4.19;71.67
60974;BME280;46846;51.528;5.076;2022-12-18T05:25:06;102175.00;;;-4.17;71.37
60974;BME280;46846;51.528;5.076;2022-12-18T05:27:31;102170.47;;;-4.21;71.66
60974;BME280;46846;51.528;5.076;2022-12-18T05:29:56;102173.06;;;-4.21;71.50
60974;BME280;46846;51.528;5.076;2022-12-18T05:32:22;102167.78;;;-4.23;71.47
60974;BME280;46846;51.528;5.076;2022-12-18T05:34:47;102171.22;;;-4.24;71.69
60974;BME280;46846;51.528;5.076;2022-12-18T05:37:12;102166.84;;;-4.25;71.54
60974;BME280;46846;51.528;5.076;2022-12-18T05:39:38;102167.66;;;-4.26;71.31
60974;BME280;46846;51.528;5.076;2022-12-18T05:42:03;102164.97;;;-4.28;71.46
60974;BME280;46846;51.528;5.076;2022-12-18T05:44:28;102166.63;;;-4.30;71.77
60974;BME280;46846;51.528;5.076;2022-12-18T05:46:54;102157.19;;;-4.28;71.52
60974;BME280;46846;51.528;5.076;2022-12-18T05:49:19;102163.38;;;-4.26;71.47
60974;BME280;46846;51.528;5.076;2022-12-18T05:51:44;102164.19;;;-4.27;71.30
60974;BME280;46846;51.528;5.076;2022-12-18T05:54:10;102163.19;;;-4.29;71.12
60974;BME280;46846;51.528;5.076;2022-12-18T05:56:36;102162.38;;;-4.28;71.47
60974;BME280;46846;51.528;5.076;2022-12-18T05:59:01;102163.59;;;-4.39;71.57
60974;BME280;46846;51.528;5.076;2022-12-18T06:01:26;102170.56;;;-4.38;71.57
60974;BME280;46846;51.528;5.076;2022-12-18T06:03:52;102166.25;;;-4.37;71.55
60974;BME280;46846;51.528;5.076;2022-12-18T06:06:20;102173.16;;;-4.38;71.48
60974;BME280;46846;51.528;5.076;2022-12-18T06:08:46;102178.50;;;-4.35;71.35
60974;BME280;46846;51.528;5.076;2022-12-18T06:11:11;102171.50;;;-4.36;71.49
60974;BME280;46846;51.528;5.076;2022-12-18T06:13:37;102161.84;;;-4.39;71.35
60974;BME280;46846;51.528;5.076;2022-12-18T06:16:06;102158.22;;;-4.42;71.38
60974;BME280;46846;51.528;5.076;2022-12-18T06:18:32;102157.44;;;-4.41;71.35
60974;BME280;46846;51.528;5.076;2022-12-18T06:20:58;102162.53;;;-4.43;71.62
60974;BME280;46846;51.528;5.076;2022-12-18T06:23:24;102155.56;;;-4.44;71.20
60974;BME280;46846;51.528;5.076;2022-12-18T06:25:50;102146.03;;;-4.43;71.64
60974;BME280;46846;51.528;5.076;2022-12-18T06:28:15;102144.34;;;-4.43;71.04
60974;BME280;46846;51.528;5.076;2022-12-18T06:30:43;102146.13;;;-4.42;71.20
60974;BME280;46846;51.528;5.076;2022-12-18T06:33:09;102151.19;;;-4.45;71.18
60974;BME280;46846;51.528;5.076;2022-12-18T06:35:34;102137.28;;;-4.45;71.25
60974;BME280;46846;51.528;5.076;2022-12-18T06:38:01;102133.66;;;-4.49;71.29
60974;BME280;46846;51.528;5.076;2022-12-18T06:40:27;102125.88;;;-4.49;71.16
60974;BME280;46846;51.528;5.076;2022-12-18T06:42:52;102124.81;;;-4.53;71.16
60974;BME280;46846;51.528;5.076;2022-12-18T06:45:18;102128.47;;;-4.49;70.86
60974;BME280;46846;51.528;5.076;2022-12-18T06:47:43;102132.69;;;-4.51;70.88
60974;BME280;46846;51.528;5.076;2022-12-18T06:50:09;102131.72;;;-4.53;71.14
60974;BME280;46846;51.528;5.076;2022-12-18T06:52:34;102120.44;;;-4.54;71.22
60974;BME280;46846;51.528;5.076;2022-12-18T06:55:00;102122.22;;;-4.53;71.14
60974;BME280;46846;51.528;5.076;2022-12-18T06:57:25;102124.75;;;-4.54;70.88
60974;BME280;46846;51.528;5.076;2022-12-18T06:59:50;102124.81;;;-4.53;71.33
60974;BME280;46846;51.528;5.076;2022-12-18T07:02:16;102126.25;;;-4.59;71.03
60974;BME280;46846;51.528;5.076;2022-12-18T07:04:41;102118.38;;;-4.61;70.97
60974;BME280;46846;51.528;5.076;2022-12-18T07:07:06;102127.03;;;-4.60;71.10
60974;BME280;46846;51.528;5.076;2022-12-18T07:09:32;102120.06;;;-4.61;71.21
60974;BME280;46846;51.528;5.076;2022-12-18T07:11:57;102111.22;;;-4.65;71.08
60974;BME280;46846;51.528;5.076;2022-12-18T07:14:23;102099.06;;;-4.66;70.90
60974;BME280;46846;51.528;5.076;2022-12-18T07:16:48;102093.81;;;-4.68;71.02
60974;BME280;46846;51.528;5.076;2022-12-18T07:19:13;102083.19;;;-4.72;71.22
60974;BME280;46846;51.528;5.076;2022-12-18T07:21:39;102080.75;;;-4.69;71.24
60974;BME280;46846;51.528;5.076;2022-12-18T07:24:05;102074.59;;;-4.71;71.09
60974;BME280;46846;51.528;5.076;2022-12-18T07:26:30;102069.41;;;-4.71;71.44
60974;BME280;46846;51.528;5.076;2022-12-18T07:28:56;102071.22;;;-4.69;70.98
60974;BME280;46846;51.528;5.076;2022-12-18T07:31:22;102072.06;;;-4.70;71.14
60974;BME280;46846;51.528;5.076;2022-12-18T07:33:49;102060.63;;;-4.73;71.25
60974;BME280;46846;51.528;5.076;2022-12-18T07:36:14;102058.84;;;-4.74;71.22
60974;BME280;46846;51.528;5.076;2022-12-18T07:38:40;102050.22;;;-4.73;71.22
60974;BME280;46846;51.528;5.076;2022-12-18T07:41:11;102049.16;;;-4.78;71.33
60974;BME280;46846;51.528;5.076;2022-12-18T07:43:37;102048.31;;;-4.77;71.34
60974;BME280;46846;51.528;5.076;2022-12-18T07:46:03;102037.94;;;-4.77;71.23
60974;BME280;46846;51.528;5.076;2022-12-18T07:48:30;102041.34;;;-4.78;71.08
60974;BME280;46846;51.528;5.076;2022-12-18T07:51:03;102037.19;;;-4.75;70.71
60974;BME280;46846;51.528;5.076;2022-12-18T07:53:29;102050.00;;;-4.78;70.86
60974;BME280;46846;51.528;5.076;2022-12-18T07:55:59;102048.31;;;-4.77;71.11
60974;BME280;46846;51.528;5.076;2022-12-18T07:58:25;102052.63;;;-4.78;71.25
60974;BME280;46846;51.528;5.076;2022-12-18T08:00:50;102058.75;;;-4.76;71.09
60974;BME280;46846;51.528;5.076;2022-12-18T08:03:17;102055.28;;;-4.76;70.96
60974;BME280;46846;51.528;5.076;2022-12-18T08:05:42;102051.56;;;-4.82;71.17
60974;BME280;46846;51.528;5.076;2022-12-18T08:08:08;102050.97;;;-4.76;70.76
60974;BME280;46846;51.528;5.076;2022-12-18T08:10:33;102055.13;;;-4.80;70.93
60974;BME280;46846;51.528;5.076;2022-12-18T08:12:58;102052.53;;;-4.80;71.01
60974;BME280;46846;51.528;5.076;2022-12-18T08:15:24;102056.03;;;-4.79;70.90
60974;BME280;46846;51.528;5.076;2022-12-18T08:17:49;102053.56;;;-4.76;70.75
60974;BME280;46846;51.528;5.076;2022-12-18T08:20:15;102048.91;;;-4.83;71.10
60974;BME280;46846;51.528;5.076;2022-12-18T08:22:41;102041.19;;;-4.82;71.02
60974;BME280;46846;51.528;5.076;2022-12-18T08:25:07;102051.56;;;-4.82;70.98
60974;BME280;46846;51.528;5.076;2022-12-18T08:27:33;102056.69;;;-4.83;71.24
60974;BME280;46846;51.528;5.076;2022-12-18T08:29:58;102057.50;;;-4.84;71.06
60974;BME280;46846;51.528;5.076;2022-12-18T08:32:25;102047.84;;;-4.87;71.06
60974;BME280;46846;51.528;5.076;2022-12-18T08:34:50;102043.66;;;-4.85;71.09
60974;BME280;46846;51.528;5.076;2022-12-18T08:37:15;102033.19;;;-4.86;71.27
60974;BME280;46846;51.528;5.076;2022-12-18T08:39:41;102030.72;;;-4.83;71.00
60974;BME280;46846;51.528;5.076;2022-12-18T08:42:06;102026.34;;;-4.84;70.88
60974;BME280;46846;51.528;5.076;2022-12-18T08:44:50;102031.31;;;-4.89;70.97
60974;BME280;46846;51.528;5.076;2022-12-18T08:47:15;102029.75;;;-4.85;71.07
60974;BME280;46846;51.528;5.076;2022-12-18T08:49:41;102026.44;;;-4.83;70.99
60974;BME280;46846;51.528;5.076;2022-12-18T08:52:06;102031.84;;;-4.78;70.91
60974;BME280;46846;51.528;5.076;2022-12-18T08:54:31;102036.22;;;-4.77;70.91
60974;BME280;46846;51.528;5.076;2022-12-18T08:56:57;102032.06;;;-4.73;70.77
60974;BME280;46846;51.528;5.076;2022-12-18T08:59:22;102044.22;;;-4.72;70.54
60974;BME280;46846;51.528;5.076;2022-12-18T09:01:48;102051.22;;;-4.71;70.75
60974;BME280;46846;51.528;5.076;2022-12-18T09:04:14;102057.16;;;-4.74;70.93
60974;BME280;46846;51.528;5.076;2022-12-18T09:06:40;102063.31;;;-4.72;70.85
60974;BME280;46846;51.528;5.076;2022-12-18T09:09:06;102056.25;;;-4.74;70.74
60974;BME280;46846;51.528;5.076;2022-12-18T09:11:32;102052.69;;;-4.76;70.73
60974;BME280;46846;51.528;5.076;2022-12-18T09:13:59;102043.94;;;-4.78;70.80
60974;BME280;46846;51.528;5.076;2022-12-18T09:16:26;102033.41;;;-4.82;70.84
60974;BME280;46846;51.528;5.076;2022-12-18T09:18:54;102029.16;;;-4.80;70.84
60974;BME280;46846;51.528;5.076;2022-12-18T09:21:25;102029.31;;;-4.76;70.88
60974;BME280;46846;51.528;5.076;2022-12-18T09:23:52;102025.81;;;-4.77;70.89
60974;BME280;46846;51.528;5.076;2022-12-18T09:26:18;102036.28;;;-4.75;70.94
60974;BME280;46846;51.528;5.076;2022-12-18T09:28:44;102038.75;;;-4.78;70.71
60974;BME280;46846;51.528;5.076;2022-12-18T09:31:15;102029.31;;;-4.76;70.49
60974;BME280;46846;51.528;5.076;2022-12-18T09:33:42;102019.59;;;-4.81;70.63
60974;BME280;46846;51.528;5.076;2022-12-18T09:36:09;102014.78;;;-4.73;70.79
60974;BME280;46846;51.528;5.076;2022-12-18T09:38:36;102007.94;;;-4.71;70.74
60974;BME280;46846;51.528;5.076;2022-12-18T09:41:13;102011.38;;;-4.72;70.72
60974;BME280;46846;51.528;5.076;2022-12-18T09:43:43;102020.06;;;-4.71;70.79
60974;BME280;46846;51.528;5.076;2022-12-18T09:46:17;102013.34;;;-4.66;70.43
60974;BME280;46846;51.528;5.076;2022-12-18T09:48:48;102002.53;;;-4.75;71.04
60974;BME280;46846;51.528;5.076;2022-12-18T09:51:15;102000.69;;;-4.78;71.11
60974;BME280;46846;51.528;5.076;2022-12-18T09:53:46;102004.41;;;-4.73;70.85
60974;BME280;46846;51.528;5.076;2022-12-18T09:56:16;102016.63;;;-4.70;71.14
60974;BME280;46846;51.528;5.076;2022-12-18T09:58:47;102010.75;;;-4.66;70.92
60974;BME280;46846;51.528;5.076;2022-12-18T10:01:19;102016.97;;;-4.62;70.68
60974;BME280;46846;51.528;5.076;2022-12-18T10:03:47;102015.28;;;-4.62;70.69
60974;BME280;46846;51.528;5.076;2022-12-18T10:09:01;102015.94;;;-4.66;70.73
60974;BME280;46846;51.528;5.076;2022-12-18T10:14:35;102013.44;;;-4.64;71.00
60974;BME280;46846;51.528;5.076;2022-12-18T10:17:54;102012.81;;;-4.59;70.89
60974;BME280;46846;51.528;5.076;2022-12-18T10:20:32;101998.88;;;-4.61;70.51
60974;BME280;46846;51.528;5.076;2022-12-18T10:28:19;101976.31;;;-4.62;71.43
60974;BME280;46846;51.528;5.076;2022-12-18T10:30:45;101962.91;;;-4.71;71.07
60974;BME280;46846;51.528;5.076;2022-12-18T10:33:17;101948.13;;;-4.72;71.20
60974;BME280;46846;51.528;5.076;2022-12-18T10:35:42;101945.00;;;-4.65;71.38
60974;BME280;46846;51.528;5.076;2022-12-18T10:40:59;101953.00;;;-4.60;71.03
60974;BME280;46846;51.528;5.076;2022-12-18T10:46:07;101949.41;;;-4.64;71.37
60974;BME280;46846;51.528;5.076;2022-12-18T10:48:40;101945.81;;;-4.66;71.48
60974;BME280;46846;51.528;5.076;2022-12-18T10:51:24;101942.56;;;-4.62;71.33
60974;BME280;46846;51.528;5.076;2022-12-18T10:54:00;101934.47;;;-4.68;71.43
60974;BME280;46846;51.528;5.076;2022-12-18T10:56:28;101935.59;;;-4.63;71.51
60974;BME280;46846;51.528;5.076;2022-12-18T10:59:03;101933.00;;;-4.63;71.38
60974;BME280;46846;51.528;5.076;2022-12-18T11:04:27;101942.69;;;-4.59;71.38
60974;BME280;46846;51.528;5.076;2022-12-18T11:07:04;101936.53;;;-4.61;72.09
60974;BME280;46846;51.528;5.076;2022-12-18T11:09:32;101943.78;;;-4.54;71.74
60974;BME280;46846;51.528;5.076;2022-12-18T11:11:59;101932.72;;;-4.49;71.19
60974;BME280;46846;51.528;5.076;2022-12-18T11:14:30;101933.63;;;-4.49;71.17
60974;BME280;46846;51.528;5.076;2022-12-18T11:16:59;101920.91;;;-4.43;71.26
60974;BME280;46846;51.528;5.076;2022-12-18T11:21:50;101908.13;;;-4.38;71.52
60974;BME280;46846;51.528;5.076;2022-12-18T11:24:26;101918.72;;;-4.33;71.04
60974;BME280;46846;51.528;5.076;2022-12-18T11:26:53;101922.94;;;-4.35;71.17
60974;BME280;46846;51.528;5.076;2022-12-18T11:29:24;101911.66;;;-4.36;71.07
60974;BME280;46846;51.528;5.076;2022-12-18T11:32:41;101923.97;;;-4.32;71.00
60974;BME280;46846;51.528;5.076;2022-12-18T11:34:46;101915.00;;;-4.39;71.18
60974;BME280;46846;51.528;5.076;2022-12-18T11:37:15;101920.91;;;-4.43;71.52
60974;BME280;46846;51.528;5.076;2022-12-18T11:39:57;101907.69;;;-4.28;71.32
60974;BME280;46846;51.528;5.076;2022-12-18T11:42:58;101905.03;;;-4.29;71.29
60974;BME280;46846;51.528;5.076;2022-12-18T11:45:31;101900.88;;;-4.26;70.95
60974;BME280;46846;51.528;5.076;2022-12-18T11:48:08;101892.16;;;-4.26;71.31
60974;BME280;46846;51.528;5.076;2022-12-18T11:50:51;101890.47;;;-4.26;71.14
60974;BME280;46846;51.528;5.076;2022-12-18T11:53:18;101885.28;;;-4.26;71.44
60974;BME280;46846;51.528;5.076;2022-12-18T11:56:15;101878.63;;;-4.19;71.02
60974;BME280;46846;51.528;5.076;2022-12-18T12:04:56;101863.94;;;-4.18;71.33
60974;BME280;46846;51.528;5.076;2022-12-18T12:10:29;101855.56;;;-4.11;71.42
60974;BME280;46846;51.528;5.076;2022-12-18T12:21:18;101831.34;;;-4.10;71.43
60974;BME280;46846;51.528;5.076;2022-12-18T12:23:58;101828.84;;;-4.07;71.67
60974;BME280;46846;51.528;5.076;2022-12-18T12:26:45;101827.78;;;-4.12;71.64
60974;BME280;46846;51.528;5.076;2022-12-18T12:29:24;101822.72;;;-4.09;71.54
60974;BME280;46846;51.528;5.076;2022-12-18T12:32:04;101817.63;;;-4.06;71.86
60974;BME280;46846;51.528;5.076;2022-12-18T12:37:47;101811.69;;;-4.03;71.49
60974;BME280;46846;51.528;5.076;2022-12-18T12:40:12;101805.97;;;-3.94;71.58
60974;BME280;46846;51.528;5.076;2022-12-18T12:42:52;101807.75;;;-3.93;71.43
60974;BME280;46846;51.528;5.076;2022-12-18T12:45:54;101796.00;;;-4.05;71.65
60974;BME280;46846;51.528;5.076;2022-12-18T12:51:08;101799.13;;;-3.92;71.61
60974;BME280;46846;51.528;5.076;2022-12-18T12:53:37;101802.63;;;-3.92;71.83
60974;BME280;46846;51.528;5.076;2022-12-18T12:56:05;101802.03;;;-3.85;71.58
60974;BME280;46846;51.528;5.076;2022-12-18T12:58:40;101795.03;;;-3.86;71.88
60974;BME280;46846;51.528;5.076;2022-12-18T13:01:18;101793.91;;;-3.92;71.79
60974;BME280;46846;51.528;5.076;2022-12-18T13:04:01;101791.81;;;-4.01;72.13
60974;BME280;46846;51.528;5.076;2022-12-18T13:08:58;101785.63;;;-3.83;71.98
60974;BME280;46846;51.528;5.076;2022-12-18T13:11:45;101783.00;;;-3.83;71.47
60974;BME280;46846;51.528;5.076;2022-12-18T13:14:33;101782.25;;;-3.81;71.58
60974;BME280;46846;51.528;5.076;2022-12-18T13:20:06;101784.03;;;-3.80;71.60
60974;BME280;46846;51.528;5.076;2022-12-18T13:22:47;101777.16;;;-3.78;71.51
60974;BME280;46846;51.528;5.076;2022-12-18T13:25:35;101772.06;;;-3.75;72.11
60974;BME280;46846;51.528;5.076;2022-12-18T13:28:10;101768.66;;;-3.74;71.80
60974;BME280;46846;51.528;5.076;2022-12-18T13:49:02;101745.38;;;-3.71;71.84
60974;BME280;46846;51.528;5.076;2022-12-18T13:51:31;101746.44;;;-3.65;71.70
60974;BME280;46846;51.528;5.076;2022-12-18T13:54:00;101748.31;;;-3.61;71.97
60974;BME280;46846;51.528;5.076;2022-12-18T13:56:31;101739.75;;;-3.59;72.03
60974;BME280;46846;51.528;5.076;2022-12-18T14:04:27;101738.22;;;-3.53;72.00
60974;BME280;46846;51.528;5.076;2022-12-18T14:06:57;101738.88;;;-3.59;71.60
60974;BME280;46846;51.528;5.076;2022-12-18T14:09:26;101742.47;;;-3.55;71.80
60974;BME280;46846;51.528;5.076;2022-12-18T14:11:53;101744.47;;;-3.48;71.98
60974;BME280;46846;51.528;5.076;2022-12-18T14:14:42;101745.25;;;-3.51;71.83
60974;BME280;46846;51.528;5.076;2022-12-18T14:17:10;101734.88;;;-3.49;71.29
60974;BME280;46846;51.528;5.076;2022-12-18T14:19:37;101731.53;;;-3.47;71.67
60974;BME280;46846;51.528;5.076;2022-12-18T14:22:13;101729.81;;;-3.46;71.96
60974;BME280;46846;51.528;5.076;2022-12-18T14:24:39;101726.06;;;-3.53;71.93
60974;BME280;46846;51.528;5.076;2022-12-18T14:27:23;101735.78;;;-3.49;71.67
60974;BME280;46846;51.528;5.076;2022-12-18T14:29:49;101729.84;;;-3.45;72.00
60974;BME280;46846;51.528;5.076;2022-12-18T14:32:17;101733.19;;;-3.49;71.93
60974;BME280;46846;51.528;5.076;2022-12-18T14:34:47;101732.66;;;-3.40;71.76
60974;BME280;46846;51.528;5.076;2022-12-18T14:37:16;101732.75;;;-3.37;71.49
60974;BME280;46846;51.528;5.076;2022-12-18T14:39:54;101733.75;;;-3.33;71.83
60974;BME280;46846;51.528;5.076;2022-12-18T14:42:19;101723.19;;;-3.38;71.69